Alegria, Brazil
Current Conditions -  °F | °C
As of 10:00 AM on Monday 24 Nov 2014 (Local Time) from SBCH Reporting Station
Few Clouds Few Clouds  
Wind Chill: 79°   Ceiling: Unl
Heat Index: 81°   Visibility: 6mi
Dew Point: 66°   Wind: 12mph
Humidity: 65%   Direction: 40°NE
Pressure: 29.97"   Gusts: 23mph
Location:  27.83°S, 54.06°W
Report Text: SBCH 241200Z 04010G20KT 9999 FEW035 26/19 Q1015
Loading
Personal Weather Stations






























Interactive Weather Map New forecast layout! Learn more

10-Day Weather Forecast

Advertisements
Track Severe Weather on mobile